Terminal Aerodrome Forecast
Issued by NWS Wakefield, VA

Home | Current Version | Previous Version | Text Only | Print | Product List | Glossary On
Versions: 1 2 3 4 5 6 7 8 9 10 11 12 13 14 15 16 17 18
869
FTUS41 KAKQ 112320
TAFECG
TAF
KECG 112320Z 1200/1224 15005KT P6SM SKC
     FM121100 22009KT P6SM SKC
     FM121400 23013KT P6SM SCT250
     FM121800 25015G23KT P6SM BKN050=

USA.gov is the U.S. government's official web portal to all federal, state and local government web resources and services.